Zouar Airport

Jump to: basic info | weather | comments

Related pages: nearby airports | nearby navaids | notams | map

Basic information (top)

Codes: FTTR
Location: lon 20.450001, lat 16.583000, elev 2,655 ft / 809 m msl
Status: small_airport

Weather (top)

Current conditions for Faya Largeau Airport 209nm (387km) SE (rec'd 2014/12/22 13:00Z):

FTTY 221300Z 04017KT 8000 SKC 24/M02 Q1019

Airport forecast for Kufra Airport 436nm (807km) ENE (rec'd 2014/12/21 12:00Z):

TAF HLKF 211100Z 2112/2212 03010KT CAVOK 
      BECMG 2118/2120 VRB02KT 
      BECMG 2210/2212 03010KT

Latest comments (top)

No comments yet for Zouar Airport

More... (top)

See also NOTAMs and nearby airports and navaids, or visit the Zouar Airport page at the main OurAirports website..